sensor_id;sensor_type;location;lat;lon;timestamp;P1;durP1;ratioP1;P2;durP2;ratioP2
13197;SDS011;6664;52.514;13.440;2022-07-04T00:01:13;2.63;;;2.00;;
13197;SDS011;6664;52.514;13.440;2022-07-04T00:03:42;1.63;;;1.53;;
13197;SDS011;6664;52.514;13.440;2022-07-04T00:06:09;1.70;;;1.60;;
13197;SDS011;6664;52.514;13.440;2022-07-04T00:08:36;2.13;;;2.00;;
13197;SDS011;6664;52.514;13.440;2022-07-04T00:11:03;8.00;;;1.40;;
13197;SDS011;6664;52.514;13.440;2022-07-04T00:13:30;1.67;;;1.57;;
13197;SDS011;6664;52.514;13.440;2022-07-04T00:15:56;5.03;;;1.97;;
13197;SDS011;6664;52.514;13.440;2022-07-04T00:18:24;2.13;;;1.70;;
13197;SDS011;6664;52.514;13.440;2022-07-04T00:20:51;1.70;;;1.60;;
13197;SDS011;6664;52.514;13.440;2022-07-04T00:23:20;2.27;;;1.80;;
13197;SDS011;6664;52.514;13.440;2022-07-04T00:25:46;1.90;;;1.70;;
13197;SDS011;6664;52.514;13.440;2022-07-04T00:28:13;1.60;;;1.50;;
13197;SDS011;6664;52.514;13.440;2022-07-04T00:30:40;1.43;;;1.33;;
13197;SDS011;6664;52.514;13.440;2022-07-04T00:33:12;3.87;;;2.10;;
13197;SDS011;6664;52.514;13.440;2022-07-04T00:35:40;4.60;;;1.87;;
13197;SDS011;6664;52.514;13.440;2022-07-04T00:38:07;1.50;;;1.40;;
13197;SDS011;6664;52.514;13.440;2022-07-04T00:40:34;2.80;;;2.10;;
13197;SDS011;6664;52.514;13.440;2022-07-04T00:43:02;2.03;;;1.93;;
13197;SDS011;6664;52.514;13.440;2022-07-04T00:45:29;2.00;;;1.90;;
13197;SDS011;6664;52.514;13.440;2022-07-04T00:47:58;1.90;;;1.80;;
13197;SDS011;6664;52.514;13.440;2022-07-04T00:50:28;3.00;;;1.57;;
13197;SDS011;6664;52.514;13.440;2022-07-04T00:52:55;1.50;;;1.40;;
13197;SDS011;6664;52.514;13.440;2022-07-04T00:55:22;2.20;;;2.10;;
13197;SDS011;6664;52.514;13.440;2022-07-04T00:57:52;1.80;;;1.70;;
13197;SDS011;6664;52.514;13.440;2022-07-04T01:00:19;2.97;;;1.73;;
13197;SDS011;6664;52.514;13.440;2022-07-04T01:02:46;3.00;;;1.60;;
13197;SDS011;6664;52.514;13.440;2022-07-04T01:05:15;2.70;;;1.60;;
13197;SDS011;6664;52.514;13.440;2022-07-04T01:07:42;2.00;;;1.90;;
13197;SDS011;6664;52.514;13.440;2022-07-04T01:10:10;1.80;;;1.70;;
13197;SDS011;6664;52.514;13.440;2022-07-04T01:12:36;1.40;;;1.40;;
13197;SDS011;6664;52.514;13.440;2022-07-04T01:15:04;2.50;;;1.87;;
13197;SDS011;6664;52.514;13.440;2022-07-04T01:17:32;2.27;;;2.07;;
13197;SDS011;6664;52.514;13.440;2022-07-04T01:20:00;3.03;;;1.80;;
13197;SDS011;6664;52.514;13.440;2022-07-04T01:22:27;2.20;;;2.00;;
13197;SDS011;6664;52.514;13.440;2022-07-04T01:24:59;1.47;;;1.40;;
13197;SDS011;6664;52.514;13.440;2022-07-04T01:27:29;1.70;;;1.60;;
13197;SDS011;6664;52.514;13.440;2022-07-04T01:30:01;1.63;;;1.57;;
13197;SDS011;6664;52.514;13.440;2022-07-04T01:32:27;2.17;;;2.00;;
13197;SDS011;6664;52.514;13.440;2022-07-04T01:34:57;1.70;;;1.60;;
13197;SDS011;6664;52.514;13.440;2022-07-04T01:37:24;2.30;;;1.90;;
13197;SDS011;6664;52.514;13.440;2022-07-04T01:39:51;1.77;;;1.67;;
13197;SDS011;6664;52.514;13.440;2022-07-04T01:42:17;1.73;;;1.63;;
13197;SDS011;6664;52.514;13.440;2022-07-04T01:44:44;1.70;;;1.60;;
13197;SDS011;6664;52.514;13.440;2022-07-04T01:47:11;3.90;;;2.23;;
13197;SDS011;6664;52.514;13.440;2022-07-04T01:49:43;1.73;;;1.63;;
13197;SDS011;6664;52.514;13.440;2022-07-04T01:52:10;2.03;;;1.90;;
13197;SDS011;6664;52.514;13.440;2022-07-04T01:54:37;3.77;;;2.03;;
13197;SDS011;6664;52.514;13.440;2022-07-04T01:57:04;2.03;;;1.93;;
13197;SDS011;6664;52.514;13.440;2022-07-04T01:59:32;2.00;;;1.90;;
13197;SDS011;6664;52.514;13.440;2022-07-04T02:02:18;2.20;;;2.00;;
13197;SDS011;6664;52.514;13.440;2022-07-04T02:04:45;2.50;;;2.20;;
13197;SDS011;6664;52.514;13.440;2022-07-04T02:07:12;2.17;;;2.07;;
13197;SDS011;6664;52.514;13.440;2022-07-04T02:09:41;3.10;;;2.80;;
13197;SDS011;6664;52.514;13.440;2022-07-04T02:12:08;3.13;;;2.37;;
13197;SDS011;6664;52.514;13.440;2022-07-04T02:14:54;2.87;;;2.67;;
13197;SDS011;6664;52.514;13.440;2022-07-04T02:17:23;2.50;;;2.40;;
13197;SDS011;6664;52.514;13.440;2022-07-04T02:19:50;6.13;;;3.00;;
13197;SDS011;6664;52.514;13.440;2022-07-04T02:22:17;3.17;;;2.33;;
13197;SDS011;6664;52.514;13.440;2022-07-04T02:24:44;3.00;;;2.80;;
13197;SDS011;6664;52.514;13.440;2022-07-04T02:27:11;3.37;;;3.10;;
13197;SDS011;6664;52.514;13.440;2022-07-04T02:29:41;3.33;;;3.13;;
13197;SDS011;6664;52.514;13.440;2022-07-04T02:32:09;4.30;;;3.20;;
13197;SDS011;6664;52.514;13.440;2022-07-04T02:34:38;4.47;;;4.07;;
13197;SDS011;6664;52.514;13.440;2022-07-04T02:37:05;3.70;;;3.50;;
13197;SDS011;6664;52.514;13.440;2022-07-04T02:39:35;4.90;;;4.40;;
13197;SDS011;6664;52.514;13.440;2022-07-04T02:42:05;4.63;;;4.27;;
13197;SDS011;6664;52.514;13.440;2022-07-04T02:44:34;4.60;;;4.30;;
13197;SDS011;6664;52.514;13.440;2022-07-04T02:47:01;6.20;;;5.60;;
13197;SDS011;6664;52.514;13.440;2022-07-04T02:49:28;7.00;;;5.83;;
13197;SDS011;6664;52.514;13.440;2022-07-04T02:52:00;5.90;;;5.20;;
13197;SDS011;6664;52.514;13.440;2022-07-04T02:54:29;7.10;;;5.33;;
13197;SDS011;6664;52.514;13.440;2022-07-04T02:56:56;4.30;;;4.00;;
13197;SDS011;6664;52.514;13.440;2022-07-04T02:59:23;6.30;;;5.70;;
13197;SDS011;6664;52.514;13.440;2022-07-04T03:01:50;5.57;;;5.13;;
13197;SDS011;6664;52.514;13.440;2022-07-04T03:04:17;6.70;;;6.00;;
13197;SDS011;6664;52.514;13.440;2022-07-04T03:06:44;8.00;;;4.90;;
13197;SDS011;6664;52.514;13.440;2022-07-04T03:09:11;5.27;;;4.77;;
13197;SDS011;6664;52.514;13.440;2022-07-04T03:11:38;8.17;;;6.03;;
13197;SDS011;6664;52.514;13.440;2022-07-04T03:14:07;6.13;;;5.47;;
13197;SDS011;6664;52.514;13.440;2022-07-04T03:16:37;9.40;;;5.70;;
13197;SDS011;6664;52.514;13.440;2022-07-04T03:19:04;7.30;;;5.80;;
13197;SDS011;6664;52.514;13.440;2022-07-04T03:21:30;6.87;;;5.63;;
13197;SDS011;6664;52.514;13.440;2022-07-04T03:23:57;9.40;;;6.07;;
13197;SDS011;6664;52.514;13.440;2022-07-04T03:26:28;7.30;;;6.60;;
13197;SDS011;6664;52.514;13.440;2022-07-04T03:28:58;6.83;;;6.13;;
13197;SDS011;6664;52.514;13.440;2022-07-04T03:31:25;7.23;;;6.00;;
13197;SDS011;6664;52.514;13.440;2022-07-04T03:33:58;6.00;;;5.33;;
13197;SDS011;6664;52.514;13.440;2022-07-04T03:36:25;7.30;;;5.60;;
13197;SDS011;6664;52.514;13.440;2022-07-04T03:38:52;8.20;;;5.57;;
13197;SDS011;6664;52.514;13.440;2022-07-04T03:41:21;9.53;;;6.50;;
13197;SDS011;6664;52.514;13.440;2022-07-04T03:43:53;5.37;;;4.87;;
13197;SDS011;6664;52.514;13.440;2022-07-04T03:46:19;7.50;;;5.70;;
13197;SDS011;6664;52.514;13.440;2022-07-04T03:48:46;6.20;;;5.70;;
13197;SDS011;6664;52.514;13.440;2022-07-04T03:51:19;7.53;;;5.73;;
13197;SDS011;6664;52.514;13.440;2022-07-04T03:53:51;7.03;;;5.63;;
13197;SDS011;6664;52.514;13.440;2022-07-04T03:56:18;7.17;;;5.53;;
13197;SDS011;6664;52.514;13.440;2022-07-04T03:58:45;6.40;;;5.77;;
13197;SDS011;6664;52.514;13.440;2022-07-04T04:01:15;6.40;;;5.80;;
13197;SDS011;6664;52.514;13.440;2022-07-04T04:03:43;6.00;;;5.40;;
13197;SDS011;6664;52.514;13.440;2022-07-04T04:06:29;7.73;;;5.57;;
13197;SDS011;6664;52.514;13.440;2022-07-04T04:08:56;9.57;;;6.43;;
13197;SDS011;6664;52.514;13.440;2022-07-04T04:11:23;6.10;;;5.50;;
13197;SDS011;6664;52.514;13.440;2022-07-04T04:13:50;6.87;;;5.53;;
13197;SDS011;6664;52.514;13.440;2022-07-04T04:16:16;7.40;;;6.10;;
13197;SDS011;6664;52.514;13.440;2022-07-04T04:18:46;6.20;;;5.60;;
13197;SDS011;6664;52.514;13.440;2022-07-04T04:21:18;6.50;;;5.27;;
13197;SDS011;6664;52.514;13.440;2022-07-04T04:23:45;7.43;;;6.20;;
13197;SDS011;6664;52.514;13.440;2022-07-04T04:26:17;6.13;;;5.63;;
13197;SDS011;6664;52.514;13.440;2022-07-04T04:28:44;5.53;;;5.03;;
13197;SDS011;6664;52.514;13.440;2022-07-04T04:31:13;6.47;;;5.97;;
13197;SDS011;6664;52.514;13.440;2022-07-04T04:33:40;6.93;;;5.70;;
13197;SDS011;6664;52.514;13.440;2022-07-04T04:36:10;6.10;;;5.50;;
13197;SDS011;6664;52.514;13.440;2022-07-04T04:38:37;7.53;;;5.60;;
13197;SDS011;6664;52.514;13.440;2022-07-04T04:41:04;6.23;;;5.33;;
13197;SDS011;6664;52.514;13.440;2022-07-04T04:43:33;5.73;;;5.10;;
13197;SDS011;6664;52.514;13.440;2022-07-04T04:46:00;5.63;;;5.13;;
13197;SDS011;6664;52.514;13.440;2022-07-04T04:48:27;8.43;;;5.53;;
13197;SDS011;6664;52.514;13.440;2022-07-04T04:50:54;8.17;;;5.23;;
13197;SDS011;6664;52.514;13.440;2022-07-04T04:53:21;8.93;;;6.47;;
13197;SDS011;6664;52.514;13.440;2022-07-04T04:55:54;6.40;;;5.50;;
13197;SDS011;6664;52.514;13.440;2022-07-04T04:58:23;6.03;;;5.43;;
13197;SDS011;6664;52.514;13.440;2022-07-04T05:00:50;9.30;;;6.10;;
13197;SDS011;6664;52.514;13.440;2022-07-04T05:03:39;6.33;;;5.83;;
13197;SDS011;6664;52.514;13.440;2022-07-04T05:06:08;6.80;;;6.20;;
13197;SDS011;6664;52.514;13.440;2022-07-04T05:08:35;6.73;;;5.10;;
13197;SDS011;6664;52.514;13.440;2022-07-04T05:11:02;5.83;;;5.30;;
13197;SDS011;6664;52.514;13.440;2022-07-04T05:13:32;7.97;;;4.70;;
13197;SDS011;6664;52.514;13.440;2022-07-04T05:15:59;7.40;;;5.60;;
13197;SDS011;6664;52.514;13.440;2022-07-04T05:18:25;5.50;;;5.00;;
13197;SDS011;6664;52.514;13.440;2022-07-04T05:20:52;6.70;;;4.80;;
13197;SDS011;6664;52.514;13.440;2022-07-04T05:23:24;5.17;;;4.70;;
13197;SDS011;6664;52.514;13.440;2022-07-04T05:25:51;6.43;;;5.10;;
13197;SDS011;6664;52.514;13.440;2022-07-04T05:28:20;4.93;;;4.43;;
13197;SDS011;6664;52.514;13.440;2022-07-04T05:30:47;6.80;;;4.43;;
13197;SDS011;6664;52.514;13.440;2022-07-04T05:33:14;12.47;;;4.00;;
13197;SDS011;6664;52.514;13.440;2022-07-04T05:35:41;5.10;;;4.47;;
13197;SDS011;6664;52.514;13.440;2022-07-04T05:38:09;4.37;;;3.93;;
13197;SDS011;6664;52.514;13.440;2022-07-04T05:40:36;4.30;;;3.40;;
13197;SDS011;6664;52.514;13.440;2022-07-04T05:43:03;4.47;;;4.03;;
13197;SDS011;6664;52.514;13.440;2022-07-04T05:45:32;6.07;;;3.60;;
13197;SDS011;6664;52.514;13.440;2022-07-04T05:47:59;3.53;;;3.33;;
13197;SDS011;6664;52.514;13.440;2022-07-04T05:50:25;4.07;;;3.77;;
13197;SDS011;6664;52.514;13.440;2022-07-04T05:52:58;3.60;;;3.30;;
13197;SDS011;6664;52.514;13.440;2022-07-04T05:55:27;3.00;;;2.83;;
13197;SDS011;6664;52.514;13.440;2022-07-04T05:57:56;6.23;;;3.00;;
13197;SDS011;6664;52.514;13.440;2022-07-04T06:00:23;3.13;;;2.60;;
13197;SDS011;6664;52.514;13.440;2022-07-04T06:02:50;3.60;;;2.90;;
13197;SDS011;6664;52.514;13.440;2022-07-04T06:05:19;5.63;;;3.20;;
13197;SDS011;6664;52.514;13.440;2022-07-04T06:07:46;3.20;;;2.97;;
13197;SDS011;6664;52.514;13.440;2022-07-04T06:10:15;3.37;;;3.07;;
13197;SDS011;6664;52.514;13.440;2022-07-04T06:12:42;6.17;;;2.73;;
13197;SDS011;6664;52.514;13.440;2022-07-04T06:15:09;2.90;;;2.70;;
13197;SDS011;6664;52.514;13.440;2022-07-04T06:17:36;2.77;;;2.37;;
13197;SDS011;6664;52.514;13.440;2022-07-04T06:20:04;3.80;;;2.27;;
13197;SDS011;6664;52.514;13.440;2022-07-04T06:22:45;3.03;;;2.60;;
13197;SDS011;6664;52.514;13.440;2022-07-04T06:25:16;2.93;;;2.80;;
13197;SDS011;6664;52.514;13.440;2022-07-04T06:27:45;3.10;;;2.90;;
13197;SDS011;6664;52.514;13.440;2022-07-04T06:30:14;2.77;;;2.30;;
13197;SDS011;6664;52.514;13.440;2022-07-04T06:35:09;2.10;;;2.00;;
13197;SDS011;6664;52.514;13.440;2022-07-04T06:37:54;4.57;;;2.20;;
13197;SDS011;6664;52.514;13.440;2022-07-04T06:40:24;1.73;;;1.50;;
13197;SDS011;6664;52.514;13.440;2022-07-04T06:42:53;8.33;;;1.40;;
13197;SDS011;6664;52.514;13.440;2022-07-04T06:45:20;1.20;;;1.10;;
13197;SDS011;6664;52.514;13.440;2022-07-04T06:47:47;1.63;;;1.10;;
13197;SDS011;6664;52.514;13.440;2022-07-04T06:50:14;3.30;;;1.30;;
13197;SDS011;6664;52.514;13.440;2022-07-04T06:53:04;1.37;;;1.10;;
13197;SDS011;6664;52.514;13.440;2022-07-04T06:55:33;2.00;;;1.10;;
13197;SDS011;6664;52.514;13.440;2022-07-04T06:58:00;4.97;;;1.23;;
13197;SDS011;6664;52.514;13.440;2022-07-04T07:00:28;1.17;;;1.17;;
13197;SDS011;6664;52.514;13.440;2022-07-04T07:02:57;1.40;;;1.30;;
13197;SDS011;6664;52.514;13.440;2022-07-04T07:05:28;1.90;;;1.80;;
13197;SDS011;6664;52.514;13.440;2022-07-04T07:08:15;3.33;;;1.10;;
13197;SDS011;6664;52.514;13.440;2022-07-04T07:10:44;3.03;;;1.23;;
13197;SDS011;6664;52.514;13.440;2022-07-04T07:13:14;1.23;;;1.00;;
13197;SDS011;6664;52.514;13.440;2022-07-04T07:15:41;1.57;;;0.90;;
13197;SDS011;6664;52.514;13.440;2022-07-04T07:18:09;0.87;;;0.87;;
13197;SDS011;6664;52.514;13.440;2022-07-04T07:20:36;1.93;;;0.90;;
13197;SDS011;6664;52.514;13.440;2022-07-04T07:23:03;4.43;;;1.00;;
13197;SDS011;6664;52.514;13.440;2022-07-04T07:25:30;1.60;;;1.17;;
13197;SDS011;6664;52.514;13.440;2022-07-04T07:27:58;1.10;;;1.00;;
13197;SDS011;6664;52.514;13.440;2022-07-04T07:30:25;1.23;;;1.17;;
13197;SDS011;6664;52.514;13.440;2022-07-04T07:32:52;2.10;;;1.03;;
13197;SDS011;6664;52.514;13.440;2022-07-04T07:35:19;1.83;;;1.10;;
13197;SDS011;6664;52.514;13.440;2022-07-04T07:37:48;1.60;;;1.03;;
13197;SDS011;6664;52.514;13.440;2022-07-04T07:40:17;1.00;;;0.90;;
13197;SDS011;6664;52.514;13.440;2022-07-04T07:42:45;5.40;;;1.23;;
13197;SDS011;6664;52.514;13.440;2022-07-04T07:45:12;0.90;;;0.90;;
13197;SDS011;6664;52.514;13.440;2022-07-04T07:47:38;0.80;;;0.80;;
13197;SDS011;6664;52.514;13.440;2022-07-04T07:50:06;1.43;;;1.03;;
13197;SDS011;6664;52.514;13.440;2022-07-04T07:52:33;2.00;;;0.80;;
13197;SDS011;6664;52.514;13.440;2022-07-04T07:55:00;0.90;;;0.90;;
13197;SDS011;6664;52.514;13.440;2022-07-04T07:57:28;0.80;;;0.80;;
13197;SDS011;6664;52.514;13.440;2022-07-04T07:59:56;1.30;;;1.00;;
13197;SDS011;6664;52.514;13.440;2022-07-04T08:02:23;1.20;;;0.93;;
13197;SDS011;6664;52.514;13.440;2022-07-04T08:05:10;1.87;;;0.97;;
13197;SDS011;6664;52.514;13.440;2022-07-04T08:07:38;1.00;;;0.90;;
13197;SDS011;6664;52.514;13.440;2022-07-04T08:10:08;0.70;;;0.70;;
13197;SDS011;6664;52.514;13.440;2022-07-04T08:12:35;1.00;;;1.00;;
13197;SDS011;6664;52.514;13.440;2022-07-04T08:15:03;0.90;;;0.80;;
13197;SDS011;6664;52.514;13.440;2022-07-04T08:17:33;0.80;;;0.80;;
13197;SDS011;6664;52.514;13.440;2022-07-04T08:20:01;0.90;;;0.90;;
13197;SDS011;6664;52.514;13.440;2022-07-04T08:22:29;1.23;;;0.87;;
13197;SDS011;6664;52.514;13.440;2022-07-04T08:24:56;2.97;;;1.20;;
13197;SDS011;6664;52.514;13.440;2022-07-04T08:27:23;1.10;;;1.00;;
13197;SDS011;6664;52.514;13.440;2022-07-04T08:29:57;1.73;;;1.10;;
13197;SDS011;6664;52.514;13.440;2022-07-04T08:32:24;1.33;;;0.90;;
13197;SDS011;6664;52.514;13.440;2022-07-04T08:34:52;0.73;;;0.73;;
13197;SDS011;6664;52.514;13.440;2022-07-04T08:37:21;1.10;;;1.00;;
13197;SDS011;6664;52.514;13.440;2022-07-04T08:39:49;0.90;;;0.90;;
13197;SDS011;6664;52.514;13.440;2022-07-04T08:42:16;0.80;;;0.80;;
13197;SDS011;6664;52.514;13.440;2022-07-04T08:44:46;1.30;;;0.97;;
13197;SDS011;6664;52.514;13.440;2022-07-04T08:47:18;4.30;;;0.90;;
13197;SDS011;6664;52.514;13.440;2022-07-04T08:53:06;2.53;;;1.20;;
13197;SDS011;6664;52.514;13.440;2022-07-04T08:55:25;1.47;;;1.00;;
13197;SDS011;6664;52.514;13.440;2022-07-04T08:58:14;1.03;;;1.03;;
13197;SDS011;6664;52.514;13.440;2022-07-04T09:01:00;2.30;;;0.90;;
13197;SDS011;6664;52.514;13.440;2022-07-04T09:03:29;1.43;;;1.00;;
13197;SDS011;6664;52.514;13.440;2022-07-04T09:05:57;2.70;;;0.90;;
13197;SDS011;6664;52.514;13.440;2022-07-04T09:08:24;2.30;;;1.40;;
13197;SDS011;6664;52.514;13.440;2022-07-04T09:10:54;4.10;;;0.90;;
13197;SDS011;6664;52.514;13.440;2022-07-04T09:13:23;3.43;;;1.27;;
13197;SDS011;6664;52.514;13.440;2022-07-04T09:15:50;1.77;;;1.00;;
13197;SDS011;6664;52.514;13.440;2022-07-04T09:18:28;1.23;;;1.13;;
13197;SDS011;6664;52.514;13.440;2022-07-04T09:21:02;2.70;;;0.80;;
13197;SDS011;6664;52.514;13.440;2022-07-04T09:23:31;1.07;;;1.07;;
13197;SDS011;6664;52.514;13.440;2022-07-04T09:28:55;2.20;;;1.00;;
13197;SDS011;6664;52.514;13.440;2022-07-04T09:31:30;1.60;;;1.03;;
13197;SDS011;6664;52.514;13.440;2022-07-04T09:34:01;5.23;;;0.90;;
13197;SDS011;6664;52.514;13.440;2022-07-04T09:36:33;2.90;;;0.97;;
13197;SDS011;6664;52.514;13.440;2022-07-04T09:39:12;0.83;;;0.80;;
13197;SDS011;6664;52.514;13.440;2022-07-04T09:41:57;3.80;;;1.00;;
13197;SDS011;6664;52.514;13.440;2022-07-04T09:44:27;1.20;;;1.10;;
13197;SDS011;6664;52.514;13.440;2022-07-04T09:46:55;1.63;;;1.10;;
13197;SDS011;6664;52.514;13.440;2022-07-04T09:49:25;1.13;;;0.80;;
13197;SDS011;6664;52.514;13.440;2022-07-04T09:51:54;3.60;;;1.37;;
13197;SDS011;6664;52.514;13.440;2022-07-04T09:54:25;1.37;;;1.13;;
13197;SDS011;6664;52.514;13.440;2022-07-04T09:57:00;1.27;;;0.80;;
13197;SDS011;6664;52.514;13.440;2022-07-04T09:59:29;2.00;;;1.00;;
13197;SDS011;6664;52.514;13.440;2022-07-04T10:02:07;1.60;;;1.17;;
13197;SDS011;6664;52.514;13.440;2022-07-04T10:04:50;0.93;;;0.93;;
13197;SDS011;6664;52.514;13.440;2022-07-04T10:07:31;1.03;;;0.93;;
13197;SDS011;6664;52.514;13.440;2022-07-04T10:12:57;1.33;;;1.17;;
13197;SDS011;6664;52.514;13.440;2022-07-04T10:15:28;4.50;;;0.97;;
13197;SDS011;6664;52.514;13.440;2022-07-04T10:17:56;2.20;;;1.20;;
13197;SDS011;6664;52.514;13.440;2022-07-04T10:20:25;1.00;;;0.90;;
13197;SDS011;6664;52.514;13.440;2022-07-04T10:22:54;1.43;;;0.90;;
13197;SDS011;6664;52.514;13.440;2022-07-04T10:25:21;1.90;;;1.10;;
13197;SDS011;6664;52.514;13.440;2022-07-04T10:27:48;1.77;;;0.90;;
13197;SDS011;6664;52.514;13.440;2022-07-04T10:30:22;1.67;;;0.90;;
13197;SDS011;6664;52.514;13.440;2022-07-04T10:32:49;0.97;;;0.97;;
13197;SDS011;6664;52.514;13.440;2022-07-04T10:35:17;1.13;;;0.97;;
13197;SDS011;6664;52.514;13.440;2022-07-04T10:38:17;1.87;;;0.97;;
13197;SDS011;6664;52.514;13.440;2022-07-04T10:40:53;3.67;;;0.90;;
13197;SDS011;6664;52.514;13.440;2022-07-04T10:51:39;1.33;;;0.80;;
13197;SDS011;6664;52.514;13.440;2022-07-04T10:54:21;6.73;;;1.10;;
13197;SDS011;6664;52.514;13.440;2022-07-04T11:02:24;1.33;;;1.00;;
13197;SDS011;6664;52.514;13.440;2022-07-04T11:05:07;2.33;;;0.83;;
13197;SDS011;6664;52.514;13.440;2022-07-04T11:17:54;8.40;;;1.20;;
13197;SDS011;6664;52.514;13.440;2022-07-04T11:20:34;4.90;;;1.10;;
13197;SDS011;6664;52.514;13.440;2022-07-04T11:25:35;0.80;;;0.80;;
13197;SDS011;6664;52.514;13.440;2022-07-04T11:28:21;2.53;;;1.00;;
13197;SDS011;6664;52.514;13.440;2022-07-04T11:31:09;3.23;;;0.80;;
13197;SDS011;6664;52.514;13.440;2022-07-04T11:33:38;1.10;;;1.00;;
13197;SDS011;6664;52.514;13.440;2022-07-04T11:36:17;2.50;;;1.07;;
13197;SDS011;6664;52.514;13.440;2022-07-04T11:41:35;0.80;;;0.80;;
13197;SDS011;6664;52.514;13.440;2022-07-04T11:44:29;0.90;;;0.90;;
13197;SDS011;6664;52.514;13.440;2022-07-04T11:47:22;1.07;;;0.87;;
13197;SDS011;6664;52.514;13.440;2022-07-04T11:49:58;2.20;;;1.20;;
13197;SDS011;6664;52.514;13.440;2022-07-04T11:52:27;1.00;;;1.00;;
13197;SDS011;6664;52.514;13.440;2022-07-04T11:55:17;1.47;;;1.37;;
13197;SDS011;6664;52.514;13.440;2022-07-04T11:57:45;1.87;;;1.40;;
13197;SDS011;6664;52.514;13.440;2022-07-04T12:00:19;2.63;;;1.10;;
13197;SDS011;6664;52.514;13.440;2022-07-04T12:02:48;1.23;;;1.10;;
13197;SDS011;6664;52.514;13.440;2022-07-04T12:05:16;0.87;;;0.87;;
13197;SDS011;6664;52.514;13.440;2022-07-04T12:07:47;1.33;;;1.03;;
13197;SDS011;6664;52.514;13.440;2022-07-04T12:10:34;1.30;;;0.97;;
13197;SDS011;6664;52.514;13.440;2022-07-04T12:13:06;1.00;;;0.90;;
13197;SDS011;6664;52.514;13.440;2022-07-04T12:15:43;0.80;;;0.80;;
13197;SDS011;6664;52.514;13.440;2022-07-04T12:18:25;1.87;;;0.90;;
13197;SDS011;6664;52.514;13.440;2022-07-04T12:21:16;2.03;;;0.90;;
13197;SDS011;6664;52.514;13.440;2022-07-04T12:23:52;2.20;;;0.90;;
13197;SDS011;6664;52.514;13.440;2022-07-04T12:26:45;5.03;;;1.00;;
13197;SDS011;6664;52.514;13.440;2022-07-04T12:29:23;6.00;;;1.13;;
13197;SDS011;6664;52.514;13.440;2022-07-04T12:31:57;1.60;;;0.70;;
13197;SDS011;6664;52.514;13.440;2022-07-04T12:34:24;1.73;;;0.90;;
13197;SDS011;6664;52.514;13.440;2022-07-04T12:36:55;2.67;;;0.90;;
13197;SDS011;6664;52.514;13.440;2022-07-04T12:39:32;1.73;;;0.93;;
13197;SDS011;6664;52.514;13.440;2022-07-04T12:44:41;1.50;;;0.90;;
13197;SDS011;6664;52.514;13.440;2022-07-04T12:47:10;2.07;;;1.20;;
13197;SDS011;6664;52.514;13.440;2022-07-04T12:49:47;6.23;;;0.90;;
13197;SDS011;6664;52.514;13.440;2022-07-04T12:52:16;6.70;;;1.00;;
13197;SDS011;6664;52.514;13.440;2022-07-04T12:55:01;1.90;;;0.77;;
13197;SDS011;6664;52.514;13.440;2022-07-04T12:57:30;1.90;;;0.70;;
13197;SDS011;6664;52.514;13.440;2022-07-04T12:59:59;2.23;;;1.60;;
13197;SDS011;6664;52.514;13.440;2022-07-04T13:02:45;1.50;;;0.87;;
13197;SDS011;6664;52.514;13.440;2022-07-04T13:05:15;0.80;;;0.80;;
13197;SDS011;6664;52.514;13.440;2022-07-04T13:07:44;6.13;;;0.70;;
13197;SDS011;6664;52.514;13.440;2022-07-04T13:10:12;1.53;;;0.60;;
13197;SDS011;6664;52.514;13.440;2022-07-04T13:12:39;4.43;;;0.70;;
13197;SDS011;6664;52.514;13.440;2022-07-04T13:15:06;0.82;;;0.70;;
13197;SDS011;6664;52.514;13.440;2022-07-04T13:17:37;0.90;;;0.70;;
13197;SDS011;6664;52.514;13.440;2022-07-04T13:20:06;0.70;;;0.50;;
13197;SDS011;6664;52.514;13.440;2022-07-04T13:22:33;0.70;;;0.70;;
13197;SDS011;6664;52.514;13.440;2022-07-04T13:25:00;0.73;;;0.65;;
13197;SDS011;6664;52.514;13.440;2022-07-04T13:27:31;0.73;;;0.50;;
13197;SDS011;6664;52.514;13.440;2022-07-04T13:30:00;1.05;;;0.50;;
13197;SDS011;6664;52.514;13.440;2022-07-04T13:32:32;0.50;;;0.50;;
13197;SDS011;6664;52.514;13.440;2022-07-04T13:35:02;0.60;;;0.60;;
13197;SDS011;6664;52.514;13.440;2022-07-04T13:37:29;0.82;;;0.55;;
13197;SDS011;6664;52.514;13.440;2022-07-04T13:39:59;0.60;;;0.60;;
13197;SDS011;6664;52.514;13.440;2022-07-04T13:42:26;0.50;;;0.50;;
13197;SDS011;6664;52.514;13.440;2022-07-04T13:45:12;2.40;;;0.55;;
13197;SDS011;6664;52.514;13.440;2022-07-04T13:47:43;0.70;;;0.70;;
13197;SDS011;6664;52.514;13.440;2022-07-04T13:50:09;0.60;;;0.60;;
13197;SDS011;6664;52.514;13.440;2022-07-04T13:52:41;0.50;;;0.50;;
13197;SDS011;6664;52.514;13.440;2022-07-04T13:55:09;0.60;;;0.60;;
13197;SDS011;6664;52.514;13.440;2022-07-04T13:57:36;2.45;;;0.70;;
13197;SDS011;6664;52.514;13.440;2022-07-04T14:00:04;0.75;;;0.75;;
13197;SDS011;6664;52.514;13.440;2022-07-04T14:02:33;0.50;;;0.50;;
13197;SDS011;6664;52.514;13.440;2022-07-04T14:05:03;0.80;;;0.70;;
13197;SDS011;6664;52.514;13.440;2022-07-04T14:07:31;1.15;;;0.80;;
13197;SDS011;6664;52.514;13.440;2022-07-04T14:09:59;0.73;;;0.60;;
13197;SDS011;6664;52.514;13.440;2022-07-04T14:12:27;0.50;;;0.50;;
13197;SDS011;6664;52.514;13.440;2022-07-04T14:14:56;2.08;;;0.50;;
13197;SDS011;6664;52.514;13.440;2022-07-04T14:17:23;1.10;;;0.60;;
13197;SDS011;6664;52.514;13.440;2022-07-04T14:20:09;0.60;;;0.60;;
13197;SDS011;6664;52.514;13.440;2022-07-04T14:22:37;0.50;;;0.50;;
13197;SDS011;6664;52.514;13.440;2022-07-04T14:25:05;0.57;;;0.50;;
13197;SDS011;6664;52.514;13.440;2022-07-04T14:27:36;0.60;;;0.60;;
13197;SDS011;6664;52.514;13.440;2022-07-04T14:30:06;0.85;;;0.82;;
13197;SDS011;6664;52.514;13.440;2022-07-04T14:32:35;0.60;;;0.60;;
13197;SDS011;6664;52.514;13.440;2022-07-04T14:35:02;1.58;;;0.73;;
13197;SDS011;6664;52.514;13.440;2022-07-04T14:37:36;0.63;;;0.63;;
13197;SDS011;6664;52.514;13.440;2022-07-04T14:40:03;1.30;;;0.60;;
13197;SDS011;6664;52.514;13.440;2022-07-04T14:42:31;0.50;;;0.50;;
13197;SDS011;6664;52.514;13.440;2022-07-04T14:45:00;1.58;;;0.60;;
13197;SDS011;6664;52.514;13.440;2022-07-04T14:47:29;0.60;;;0.60;;
13197;SDS011;6664;52.514;13.440;2022-07-04T14:50:00;1.33;;;0.50;;
13197;SDS011;6664;52.514;13.440;2022-07-04T14:52:30;0.55;;;0.55;;
13197;SDS011;6664;52.514;13.440;2022-07-04T14:54:57;1.20;;;0.50;;
13197;SDS011;6664;52.514;13.440;2022-07-04T14:57:24;0.50;;;0.50;;
13197;SDS011;6664;52.514;13.440;2022-07-04T14:59:51;2.25;;;0.60;;
13197;SDS011;6664;52.514;13.440;2022-07-04T15:02:18;0.82;;;0.65;;
13197;SDS011;6664;52.514;13.440;2022-07-04T15:04:46;0.63;;;0.60;;
13197;SDS011;6664;52.514;13.440;2022-07-04T15:07:15;1.90;;;0.85;;
13197;SDS011;6664;52.514;13.440;2022-07-04T15:09:42;1.03;;;0.90;;
13197;SDS011;6664;52.514;13.440;2022-07-04T15:12:11;2.20;;;0.90;;
13197;SDS011;6664;52.514;13.440;2022-07-04T15:14:38;1.60;;;0.97;;
13197;SDS011;6664;52.514;13.440;2022-07-04T15:17:07;2.93;;;1.20;;
13197;SDS011;6664;52.514;13.440;2022-07-04T15:19:38;1.00;;;1.00;;
13197;SDS011;6664;52.514;13.440;2022-07-04T15:22:23;2.70;;;0.90;;
13197;SDS011;6664;52.514;13.440;2022-07-04T15:25:09;0.80;;;0.80;;
13197;SDS011;6664;52.514;13.440;2022-07-04T15:27:38;1.23;;;1.03;;
13197;SDS011;6664;52.514;13.440;2022-07-04T15:30:05;2.17;;;0.80;;
13197;SDS011;6664;52.514;13.440;2022-07-04T15:32:33;0.80;;;0.80;;
13197;SDS011;6664;52.514;13.440;2022-07-04T15:35:02;0.90;;;0.90;;
13197;SDS011;6664;52.514;13.440;2022-07-04T15:37:44;1.57;;;1.10;;
13197;SDS011;6664;52.514;13.440;2022-07-04T15:40:11;0.73;;;0.73;;
13197;SDS011;6664;52.514;13.440;2022-07-04T15:42:38;1.00;;;0.90;;
13197;SDS011;6664;52.514;13.440;2022-07-04T15:45:12;0.87;;;0.80;;
13197;SDS011;6664;52.514;13.440;2022-07-04T15:47:40;1.00;;;1.00;;
13197;SDS011;6664;52.514;13.440;2022-07-04T15:50:07;0.90;;;0.90;;